createdAt,value
2019-02-24T00:01:03.927Z,2.82
2019-02-24T00:11:09.902Z,2.80
2019-02-24T00:21:17.863Z,2.68
2019-02-24T00:31:23.633Z,2.67
2019-02-24T00:41:29.830Z,2.61
2019-02-24T00:51:35.557Z,2.65
2019-02-24T01:01:41.352Z,2.59
2019-02-24T01:11:47.047Z,2.56
2019-02-24T01:21:53.017Z,2.60
2019-02-24T01:31:59.406Z,2.60
2019-02-24T01:42:05.285Z,2.53
2019-02-24T01:52:11.220Z,2.68
2019-02-24T02:02:16.899Z,2.75
2019-02-24T02:12:22.696Z,2.65
2019-02-24T02:22:28.388Z,2.80
2019-02-24T02:32:34.317Z,2.40
2019-02-24T02:42:40.250Z,2.38
2019-02-24T02:52:46.010Z,2.34
2019-02-24T03:02:51.939Z,2.55
2019-02-24T03:12:57.706Z,2.52
2019-02-24T03:23:03.436Z,2.45
2019-02-24T03:33:09.226Z,2.50
2019-02-24T03:43:16.403Z,2.71
2019-02-24T03:53:22.168Z,2.50
2019-02-24T04:03:27.911Z,2.66
2019-02-24T04:13:33.657Z,2.58
2019-02-24T04:23:39.461Z,2.59
2019-02-24T04:33:45.322Z,2.63
2019-02-24T04:43:50.970Z,2.73
2019-02-24T04:53:56.824Z,2.79
2019-02-24T05:04:02.470Z,2.76
2019-02-24T05:14:08.169Z,2.66
2019-02-24T05:24:15.912Z,2.77
2019-02-24T05:34:21.735Z,3.21
2019-02-24T05:44:27.582Z,2.91
2019-02-24T05:54:33.335Z,2.87
2019-02-24T06:04:39.020Z,2.65
2019-02-24T06:14:45.337Z,2.49
2019-02-24T06:24:51.694Z,2.47
2019-02-24T06:34:57.466Z,2.82
2019-02-24T06:45:03.564Z,2.75
2019-02-24T06:55:09.654Z,2.58
2019-02-24T07:05:15.486Z,2.83
2019-02-24T07:15:21.381Z,2.85
2019-02-24T07:25:27.088Z,3.03
2019-02-24T07:35:32.810Z,3.18
2019-02-24T07:45:38.594Z,3.62
2019-02-24T07:55:44.656Z,3.67
2019-02-24T08:05:50.408Z,3.55
2019-02-24T08:15:56.214Z,3.76
2019-02-24T08:26:01.936Z,4.01
2019-02-24T08:36:09.366Z,4.76
2019-02-24T08:46:15.273Z,5.39
2019-02-24T08:56:21.124Z,5.25
2019-02-24T09:06:26.859Z,6.23
2019-02-24T09:16:32.664Z,6.45
2019-02-24T09:26:38.464Z,6.53
2019-02-24T09:36:44.370Z,6.80
2019-02-24T09:46:50.195Z,7.30
2019-02-24T09:56:56.456Z,7.32
2019-02-24T10:07:02.619Z,7.61
2019-02-24T10:17:08.785Z,8.07
2019-02-24T10:27:14.525Z,8.48
2019-02-24T10:37:20.485Z,8.55
2019-02-24T10:47:26.428Z,8.89
2019-02-24T10:57:32.530Z,9.00
2019-02-24T11:07:38.357Z,9.56
2019-02-24T11:17:44.146Z,9.71
2019-02-24T11:27:49.942Z,9.83
2019-02-24T11:37:55.650Z,9.66
2019-02-24T11:48:01.609Z,9.82
2019-02-24T11:58:07.440Z,9.65
2019-02-24T12:08:13.270Z,9.98
2019-02-24T12:18:19.086Z,10.21
2019-02-24T12:28:25.078Z,10.05
2019-02-24T12:38:30.783Z,10.55
2019-02-24T12:48:36.906Z,10.69
2019-02-24T12:58:42.930Z,11.30
2019-02-24T13:08:50.397Z,11.26
2019-02-24T13:18:56.308Z,11.38
2019-02-24T13:29:02.146Z,12.78
2019-02-24T13:39:09.950Z,12.22
2019-02-24T13:49:15.830Z,12.67
2019-02-24T13:59:27.036Z,12.44
2019-02-24T14:09:33.705Z,11.93
2019-02-24T14:19:42.109Z,12.89
2019-02-24T14:29:47.816Z,12.98
2019-02-24T14:39:53.872Z,12.93
2019-02-24T14:49:59.729Z,12.39
2019-02-24T15:00:13.827Z,12.65
2019-02-24T15:10:21.957Z,12.81
2019-02-24T15:20:28.837Z,12.68
2019-02-24T15:30:36.916Z,12.53
2019-02-24T15:40:42.696Z,12.21
2019-02-24T15:50:48.680Z,11.92
2019-02-24T16:00:55.342Z,11.71
2019-02-24T16:11:01.420Z,11.25
2019-02-24T16:21:07.395Z,10.60
2019-02-24T16:31:13.507Z,9.59
2019-02-24T16:41:19.341Z,9.52
2019-02-24T16:51:25.141Z,9.06
2019-02-24T17:01:31.081Z,8.07
2019-02-24T17:11:37.159Z,8.61
2019-02-24T17:21:43.072Z,8.43
2019-02-24T17:31:48.815Z,7.76
2019-02-24T17:41:56.500Z,7.95
2019-02-24T17:52:02.371Z,7.04
2019-02-24T18:02:08.730Z,7.65
2019-02-24T18:12:16.071Z,7.78
2019-02-24T18:22:21.759Z,7.42
2019-02-24T18:32:27.683Z,8.43
2019-02-24T18:42:33.895Z,8.45
2019-02-24T18:52:39.898Z,8.48
2019-02-24T19:02:45.587Z,8.58
2019-02-24T19:12:51.325Z,8.69
2019-02-24T19:22:58.718Z,8.62
2019-02-24T19:33:04.881Z,8.66
2019-02-24T19:43:12.498Z,8.61
2019-02-24T19:53:19.839Z,8.47
2019-02-24T20:03:26.565Z,8.63
2019-02-24T20:13:34.189Z,8.66
2019-02-24T20:23:41.461Z,8.37
2019-02-24T20:33:47.848Z,8.46
2019-02-24T20:43:53.886Z,8.20
2019-02-24T20:53:59.809Z,7.96
2019-02-24T21:04:06.048Z,8.15
2019-02-24T21:14:11.822Z,8.02
2019-02-24T21:24:19.057Z,8.04
2019-02-24T21:34:24.820Z,8.04
2019-02-24T21:44:30.735Z,8.05
2019-02-24T21:54:37.421Z,7.86
2019-02-24T22:04:43.360Z,7.78
2019-02-24T22:14:49.265Z,7.66
2019-02-24T22:24:55.617Z,7.80
2019-02-24T22:35:01.394Z,7.67
2019-02-24T22:45:10.424Z,7.35
2019-02-24T22:55:19.937Z,7.38
2019-02-24T23:05:25.862Z,7.18
2019-02-24T23:15:31.784Z,7.08
2019-02-24T23:25:37.477Z,7.09
2019-02-24T23:35:43.274Z,7.09
2019-02-24T23:45:49.170Z,6.96
2019-02-24T23:55:55.175Z,6.93
